Milford, Texas
Current Conditions -  °F | °C
As of 6:55 PM on Monday 22 Dec 2014 (Local Time) from KINJ Reporting Station
Clear Clear  
Wind Chill: 12°   Ceiling: Unl
Heat Index: 12°   Visibility: 10mi
Dew Point:   Wind: 6mph
Humidity: 71%   Direction: 300°WNW
Pressure: 29.67"   Gusts: NA
Location:  32.12°N, 96.95°W
Report Text: KINJ 230055Z AUTO 30005KT 10SM CLR 12/07 A2967 RMK AO2 T01240072
Loading
Personal Weather Stations






























Interactive Weather Map New forecast layout! Learn more

10-Day Weather Forecast

Advertisements
Track Severe Weather on mobile